sensor_id;sensor_type;location;lat;lon;timestamp;temperature;humidity
13458;DHT22;6801;53.018;11.560;2022-07-23T00:00:40;20.50;52.30
13458;DHT22;6801;53.018;11.560;2022-07-23T00:03:07;20.50;52.30
13458;DHT22;6801;53.018;11.560;2022-07-23T00:05:33;20.50;52.40
13458;DHT22;6801;53.018;11.560;2022-07-23T00:08:02;20.50;52.50
13458;DHT22;6801;53.018;11.560;2022-07-23T00:10:29;20.40;52.50
13458;DHT22;6801;53.018;11.560;2022-07-23T00:12:56;20.50;52.60
13458;DHT22;6801;53.018;11.560;2022-07-23T00:15:23;20.40;52.60
13458;DHT22;6801;53.018;11.560;2022-07-23T00:17:50;20.40;52.60
13458;DHT22;6801;53.018;11.560;2022-07-23T00:20:17;20.30;52.80
13458;DHT22;6801;53.018;11.560;2022-07-23T00:22:47;20.30;52.80
13458;DHT22;6801;53.018;11.560;2022-07-23T00:25:16;20.20;53.40
13458;DHT22;6801;53.018;11.560;2022-07-23T00:27:43;20.20;53.70
13458;DHT22;6801;53.018;11.560;2022-07-23T00:30:11;20.20;53.60
13458;DHT22;6801;53.018;11.560;2022-07-23T00:32:46;20.10;53.50
13458;DHT22;6801;53.018;11.560;2022-07-23T00:35:13;20.20;53.50
13458;DHT22;6801;53.018;11.560;2022-07-23T00:37:40;20.10;53.40
13458;DHT22;6801;53.018;11.560;2022-07-23T00:40:09;20.10;53.50
13458;DHT22;6801;53.018;11.560;2022-07-23T00:42:38;20.10;53.70
13458;DHT22;6801;53.018;11.560;2022-07-23T00:45:06;20.00;53.80
13458;DHT22;6801;53.018;11.560;2022-07-23T00:47:34;20.00;53.90
13458;DHT22;6801;53.018;11.560;2022-07-23T00:50:01;20.00;53.90
13458;DHT22;6801;53.018;11.560;2022-07-23T00:52:29;20.00;54.00
13458;DHT22;6801;53.018;11.560;2022-07-23T00:54:56;20.00;53.90
13458;DHT22;6801;53.018;11.560;2022-07-23T00:57:24;19.90;53.90
13458;DHT22;6801;53.018;11.560;2022-07-23T00:59:52;19.90;54.10
13458;DHT22;6801;53.018;11.560;2022-07-23T01:02:19;19.90;54.20
13458;DHT22;6801;53.018;11.560;2022-07-23T01:04:46;19.90;54.10
13458;DHT22;6801;53.018;11.560;2022-07-23T01:07:13;19.80;54.50
13458;DHT22;6801;53.018;11.560;2022-07-23T01:09:40;19.70;55.00
13458;DHT22;6801;53.018;11.560;2022-07-23T01:12:08;19.70;54.80
13458;DHT22;6801;53.018;11.560;2022-07-23T01:14:35;19.70;54.80
13458;DHT22;6801;53.018;11.560;2022-07-23T01:17:03;19.70;54.70
13458;DHT22;6801;53.018;11.560;2022-07-23T01:19:30;19.70;54.70
13458;DHT22;6801;53.018;11.560;2022-07-23T01:22:01;19.70;54.80
13458;DHT22;6801;53.018;11.560;2022-07-23T01:24:30;19.60;54.80
13458;DHT22;6801;53.018;11.560;2022-07-23T01:27:03;19.70;54.80
13458;DHT22;6801;53.018;11.560;2022-07-23T01:29:33;19.60;54.80
13458;DHT22;6801;53.018;11.560;2022-07-23T01:32:04;19.60;54.80
13458;DHT22;6801;53.018;11.560;2022-07-23T01:34:32;19.50;54.80
13458;DHT22;6801;53.018;11.560;2022-07-23T01:36:58;19.50;54.90
13458;DHT22;6801;53.018;11.560;2022-07-23T01:39:26;19.50;55.20
13458;DHT22;6801;53.018;11.560;2022-07-23T01:41:54;19.50;55.20
13458;DHT22;6801;53.018;11.560;2022-07-23T01:44:22;19.50;55.10
13458;DHT22;6801;53.018;11.560;2022-07-23T01:46:49;19.50;55.00
13458;DHT22;6801;53.018;11.560;2022-07-23T01:49:17;19.40;55.00
13458;DHT22;6801;53.018;11.560;2022-07-23T01:52:03;19.40;55.00
13458;DHT22;6801;53.018;11.560;2022-07-23T01:54:48;19.40;55.00
13458;DHT22;6801;53.018;11.560;2022-07-23T02:01:05;19.30;55.20
13458;DHT22;6801;53.018;11.560;2022-07-23T02:03:32;19.30;55.20
13458;DHT22;6801;53.018;11.560;2022-07-23T02:05:59;19.30;55.20
13458;DHT22;6801;53.018;11.560;2022-07-23T02:08:28;19.30;55.20
13458;DHT22;6801;53.018;11.560;2022-07-23T02:10:55;19.20;55.10
13458;DHT22;6801;53.018;11.560;2022-07-23T02:13:22;19.20;55.20
13458;DHT22;6801;53.018;11.560;2022-07-23T02:15:49;19.10;55.20
13458;DHT22;6801;53.018;11.560;2022-07-23T02:18:18;19.10;55.20
13458;DHT22;6801;53.018;11.560;2022-07-23T02:20:45;19.10;55.30
13458;DHT22;6801;53.018;11.560;2022-07-23T02:23:12;19.00;55.20
13458;DHT22;6801;53.018;11.560;2022-07-23T02:25:39;19.10;55.20
13458;DHT22;6801;53.018;11.560;2022-07-23T02:28:06;19.00;55.20
13458;DHT22;6801;53.018;11.560;2022-07-23T02:30:33;19.00;55.20
13458;DHT22;6801;53.018;11.560;2022-07-23T02:33:00;19.00;55.20
13458;DHT22;6801;53.018;11.560;2022-07-23T02:35:28;19.00;55.20
13458;DHT22;6801;53.018;11.560;2022-07-23T02:37:58;18.90;55.30
13458;DHT22;6801;53.018;11.560;2022-07-23T02:40:26;18.90;55.40
13458;DHT22;6801;53.018;11.560;2022-07-23T02:42:53;18.90;55.30
13458;DHT22;6801;53.018;11.560;2022-07-23T02:45:21;18.90;55.40
13458;DHT22;6801;53.018;11.560;2022-07-23T02:47:49;18.80;55.50
13458;DHT22;6801;53.018;11.560;2022-07-23T02:50:16;18.80;55.50
13458;DHT22;6801;53.018;11.560;2022-07-23T02:52:44;18.80;55.60
13458;DHT22;6801;53.018;11.560;2022-07-23T02:55:11;18.80;55.60
13458;DHT22;6801;53.018;11.560;2022-07-23T02:57:38;18.80;55.60
13458;DHT22;6801;53.018;11.560;2022-07-23T03:00:06;18.80;55.70
13458;DHT22;6801;53.018;11.560;2022-07-23T03:02:34;18.70;55.80
13458;DHT22;6801;53.018;11.560;2022-07-23T03:05:01;18.70;55.70
13458;DHT22;6801;53.018;11.560;2022-07-23T03:07:28;18.70;55.80
13458;DHT22;6801;53.018;11.560;2022-07-23T03:09:56;18.70;55.80
13458;DHT22;6801;53.018;11.560;2022-07-23T03:12:23;18.70;55.90
13458;DHT22;6801;53.018;11.560;2022-07-23T03:14:51;18.70;55.80
13458;DHT22;6801;53.018;11.560;2022-07-23T03:17:18;18.70;56.10
13458;DHT22;6801;53.018;11.560;2022-07-23T03:19:46;18.70;56.00
13458;DHT22;6801;53.018;11.560;2022-07-23T03:22:13;18.60;56.00
13458;DHT22;6801;53.018;11.560;2022-07-23T03:24:40;18.60;56.10
13458;DHT22;6801;53.018;11.560;2022-07-23T03:27:34;18.60;56.20
13458;DHT22;6801;53.018;11.560;2022-07-23T03:30:01;18.60;56.10
13458;DHT22;6801;53.018;11.560;2022-07-23T03:32:28;18.60;56.30
13458;DHT22;6801;53.018;11.560;2022-07-23T03:34:57;18.60;56.20
13458;DHT22;6801;53.018;11.560;2022-07-23T03:37:24;18.60;56.40
13458;DHT22;6801;53.018;11.560;2022-07-23T03:39:51;18.60;56.50
13458;DHT22;6801;53.018;11.560;2022-07-23T03:42:18;18.50;56.50
13458;DHT22;6801;53.018;11.560;2022-07-23T03:44:47;18.50;56.50
13458;DHT22;6801;53.018;11.560;2022-07-23T03:47:15;18.50;56.70
13458;DHT22;6801;53.018;11.560;2022-07-23T03:49:43;18.50;56.70
13458;DHT22;6801;53.018;11.560;2022-07-23T03:52:10;18.50;56.70
13458;DHT22;6801;53.018;11.560;2022-07-23T03:54:37;18.50;56.70
13458;DHT22;6801;53.018;11.560;2022-07-23T03:57:04;18.50;56.70
13458;DHT22;6801;53.018;11.560;2022-07-23T03:59:31;18.50;56.90
13458;DHT22;6801;53.018;11.560;2022-07-23T04:02:00;18.50;56.90
13458;DHT22;6801;53.018;11.560;2022-07-23T04:04:27;18.50;57.00
13458;DHT22;6801;53.018;11.560;2022-07-23T04:06:54;18.50;56.90
13458;DHT22;6801;53.018;11.560;2022-07-23T04:09:22;18.50;56.90
13458;DHT22;6801;53.018;11.560;2022-07-23T04:11:49;18.50;56.90
13458;DHT22;6801;53.018;11.560;2022-07-23T04:14:16;18.50;57.10
13458;DHT22;6801;53.018;11.560;2022-07-23T04:16:43;18.50;57.20
13458;DHT22;6801;53.018;11.560;2022-07-23T04:19:11;18.50;57.20
13458;DHT22;6801;53.018;11.560;2022-07-23T04:21:51;18.50;57.20
13458;DHT22;6801;53.018;11.560;2022-07-23T04:24:19;18.50;57.20
13458;DHT22;6801;53.018;11.560;2022-07-23T04:26:46;18.50;57.40
13458;DHT22;6801;53.018;11.560;2022-07-23T04:29:13;18.40;57.30
13458;DHT22;6801;53.018;11.560;2022-07-23T04:31:40;18.50;57.40
13458;DHT22;6801;53.018;11.560;2022-07-23T04:34:08;18.50;57.50
13458;DHT22;6801;53.018;11.560;2022-07-23T04:36:36;18.40;57.60
13458;DHT22;6801;53.018;11.560;2022-07-23T04:39:03;18.50;57.60
13458;DHT22;6801;53.018;11.560;2022-07-23T04:41:31;18.50;57.40
13458;DHT22;6801;53.018;11.560;2022-07-23T04:43:58;18.50;57.50
13458;DHT22;6801;53.018;11.560;2022-07-23T04:46:25;18.50;57.40
13458;DHT22;6801;53.018;11.560;2022-07-23T04:48:52;18.50;57.50
13458;DHT22;6801;53.018;11.560;2022-07-23T04:51:19;18.50;57.50
13458;DHT22;6801;53.018;11.560;2022-07-23T04:53:47;18.50;57.50
13458;DHT22;6801;53.018;11.560;2022-07-23T04:56:14;18.50;57.90
13458;DHT22;6801;53.018;11.560;2022-07-23T04:58:41;18.50;57.80
13458;DHT22;6801;53.018;11.560;2022-07-23T05:01:08;18.50;57.70
13458;DHT22;6801;53.018;11.560;2022-07-23T05:03:36;18.50;58.00
13458;DHT22;6801;53.018;11.560;2022-07-23T05:06:04;18.50;58.20
13458;DHT22;6801;53.018;11.560;2022-07-23T05:08:31;18.50;58.00
13458;DHT22;6801;53.018;11.560;2022-07-23T05:11:00;18.50;58.00
13458;DHT22;6801;53.018;11.560;2022-07-23T05:13:28;18.50;58.00
13458;DHT22;6801;53.018;11.560;2022-07-23T05:15:55;18.60;57.80
13458;DHT22;6801;53.018;11.560;2022-07-23T05:18:23;18.60;57.80
13458;DHT22;6801;53.018;11.560;2022-07-23T05:20:50;18.60;58.00
13458;DHT22;6801;53.018;11.560;2022-07-23T05:23:20;18.60;57.90
13458;DHT22;6801;53.018;11.560;2022-07-23T05:25:48;18.60;57.80
13458;DHT22;6801;53.018;11.560;2022-07-23T05:28:18;18.60;58.10
13458;DHT22;6801;53.018;11.560;2022-07-23T05:30:45;18.60;58.10
13458;DHT22;6801;53.018;11.560;2022-07-23T05:33:14;18.60;58.10
13458;DHT22;6801;53.018;11.560;2022-07-23T05:35:41;18.70;58.10
13458;DHT22;6801;53.018;11.560;2022-07-23T05:38:28;18.70;58.10
13458;DHT22;6801;53.018;11.560;2022-07-23T05:40:58;18.70;58.30
13458;DHT22;6801;53.018;11.560;2022-07-23T05:43:27;18.70;58.20
13458;DHT22;6801;53.018;11.560;2022-07-23T05:45:56;18.70;58.20
13458;DHT22;6801;53.018;11.560;2022-07-23T05:48:23;18.80;57.90
13458;DHT22;6801;53.018;11.560;2022-07-23T05:51:01;18.80;57.90
13458;DHT22;6801;53.018;11.560;2022-07-23T05:53:31;18.80;57.80
13458;DHT22;6801;53.018;11.560;2022-07-23T05:56:04;18.90;57.60
13458;DHT22;6801;53.018;11.560;2022-07-23T05:58:33;18.90;57.50
13458;DHT22;6801;53.018;11.560;2022-07-23T06:01:01;18.90;57.60
13458;DHT22;6801;53.018;11.560;2022-07-23T06:03:33;18.90;57.80
13458;DHT22;6801;53.018;11.560;2022-07-23T06:06:00;18.90;57.80
13458;DHT22;6801;53.018;11.560;2022-07-23T06:08:27;19.00;57.80
13458;DHT22;6801;53.018;11.560;2022-07-23T06:10:54;19.00;58.00
13458;DHT22;6801;53.018;11.560;2022-07-23T06:13:21;19.00;58.50
13458;DHT22;6801;53.018;11.560;2022-07-23T06:15:49;19.00;58.30
13458;DHT22;6801;53.018;11.560;2022-07-23T06:18:16;19.00;59.30
13458;DHT22;6801;53.018;11.560;2022-07-23T06:20:43;19.00;59.90
13458;DHT22;6801;53.018;11.560;2022-07-23T06:23:11;19.00;59.30
13458;DHT22;6801;53.018;11.560;2022-07-23T06:25:39;19.00;59.20
13458;DHT22;6801;53.018;11.560;2022-07-23T06:28:06;19.00;59.10
13458;DHT22;6801;53.018;11.560;2022-07-23T06:30:33;19.00;59.10
13458;DHT22;6801;53.018;11.560;2022-07-23T06:33:04;19.00;59.10
13458;DHT22;6801;53.018;11.560;2022-07-23T06:35:31;19.00;58.90
13458;DHT22;6801;53.018;11.560;2022-07-23T06:37:59;19.00;59.10
13458;DHT22;6801;53.018;11.560;2022-07-23T06:40:26;19.10;59.20
13458;DHT22;6801;53.018;11.560;2022-07-23T06:42:53;19.00;59.40
13458;DHT22;6801;53.018;11.560;2022-07-23T06:45:22;19.10;59.20
13458;DHT22;6801;53.018;11.560;2022-07-23T06:47:49;19.10;59.30
13458;DHT22;6801;53.018;11.560;2022-07-23T06:50:19;19.10;59.30
13458;DHT22;6801;53.018;11.560;2022-07-23T06:52:48;19.20;59.90
13458;DHT22;6801;53.018;11.560;2022-07-23T06:55:15;19.20;60.10
13458;DHT22;6801;53.018;11.560;2022-07-23T06:57:44;19.20;59.90
13458;DHT22;6801;53.018;11.560;2022-07-23T07:00:12;19.20;60.10
13458;DHT22;6801;53.018;11.560;2022-07-23T07:02:39;19.20;60.00
13458;DHT22;6801;53.018;11.560;2022-07-23T07:05:06;19.20;59.80
13458;DHT22;6801;53.018;11.560;2022-07-23T07:07:35;19.30;59.70
13458;DHT22;6801;53.018;11.560;2022-07-23T07:10:02;19.30;59.80
13458;DHT22;6801;53.018;11.560;2022-07-23T07:12:29;19.30;59.90
13458;DHT22;6801;53.018;11.560;2022-07-23T07:14:56;19.40;60.20
13458;DHT22;6801;53.018;11.560;2022-07-23T07:17:23;19.40;60.20
13458;DHT22;6801;53.018;11.560;2022-07-23T07:19:50;19.50;60.60
13458;DHT22;6801;53.018;11.560;2022-07-23T07:22:17;19.50;60.30
13458;DHT22;6801;53.018;11.560;2022-07-23T07:24:46;19.60;60.10
13458;DHT22;6801;53.018;11.560;2022-07-23T07:27:12;19.60;60.10
13458;DHT22;6801;53.018;11.560;2022-07-23T07:29:39;19.70;59.90
13458;DHT22;6801;53.018;11.560;2022-07-23T07:32:06;19.70;59.70
13458;DHT22;6801;53.018;11.560;2022-07-23T07:34:33;19.80;59.40
13458;DHT22;6801;53.018;11.560;2022-07-23T07:37:00;19.80;59.40
13458;DHT22;6801;53.018;11.560;2022-07-23T07:39:28;19.90;59.30
13458;DHT22;6801;53.018;11.560;2022-07-23T07:41:57;20.00;59.20
13458;DHT22;6801;53.018;11.560;2022-07-23T07:44:24;20.00;59.00
13458;DHT22;6801;53.018;11.560;2022-07-23T07:46:51;20.00;58.80
13458;DHT22;6801;53.018;11.560;2022-07-23T07:49:18;20.20;58.50
13458;DHT22;6801;53.018;11.560;2022-07-23T07:51:45;20.20;57.90
13458;DHT22;6801;53.018;11.560;2022-07-23T07:54:12;20.30;58.00
13458;DHT22;6801;53.018;11.560;2022-07-23T07:56:39;20.30;58.00
13458;DHT22;6801;53.018;11.560;2022-07-23T07:59:08;20.40;58.00
13458;DHT22;6801;53.018;11.560;2022-07-23T08:01:35;20.50;57.70
13458;DHT22;6801;53.018;11.560;2022-07-23T08:04:01;20.50;57.50
13458;DHT22;6801;53.018;11.560;2022-07-23T08:06:28;20.60;57.40
13458;DHT22;6801;53.018;11.560;2022-07-23T08:08:55;20.60;57.10
13458;DHT22;6801;53.018;11.560;2022-07-23T08:11:22;20.70;56.70
13458;DHT22;6801;53.018;11.560;2022-07-23T08:13:49;20.80;56.40
13458;DHT22;6801;53.018;11.560;2022-07-23T08:16:18;20.80;56.40
13458;DHT22;6801;53.018;11.560;2022-07-23T08:18:45;20.90;55.40
13458;DHT22;6801;53.018;11.560;2022-07-23T08:21:12;20.90;56.00
13458;DHT22;6801;53.018;11.560;2022-07-23T08:23:39;20.90;56.00
13458;DHT22;6801;53.018;11.560;2022-07-23T08:26:06;21.00;55.90
13458;DHT22;6801;53.018;11.560;2022-07-23T08:28:32;21.10;55.70
13458;DHT22;6801;53.018;11.560;2022-07-23T08:31:00;21.10;53.80
13458;DHT22;6801;53.018;11.560;2022-07-23T08:33:28;21.20;54.70
13458;DHT22;6801;53.018;11.560;2022-07-23T08:35:55;21.30;54.70
13458;DHT22;6801;53.018;11.560;2022-07-23T08:38:22;21.30;54.80
13458;DHT22;6801;53.018;11.560;2022-07-23T08:40:51;21.50;54.60
13458;DHT22;6801;53.018;11.560;2022-07-23T08:43:20;21.50;54.20
13458;DHT22;6801;53.018;11.560;2022-07-23T08:45:49;21.60;54.00
13458;DHT22;6801;53.018;11.560;2022-07-23T08:48:17;21.80;54.00
13458;DHT22;6801;53.018;11.560;2022-07-23T08:50:48;21.80;53.50
13458;DHT22;6801;53.018;11.560;2022-07-23T08:53:17;22.00;52.00
13458;DHT22;6801;53.018;11.560;2022-07-23T08:55:45;22.00;51.60
13458;DHT22;6801;53.018;11.560;2022-07-23T08:58:13;22.00;51.50
13458;DHT22;6801;53.018;11.560;2022-07-23T09:00:42;22.00;51.70
13458;DHT22;6801;53.018;11.560;2022-07-23T09:03:15;22.10;51.20
13458;DHT22;6801;53.018;11.560;2022-07-23T09:05:43;22.10;50.90
13458;DHT22;6801;53.018;11.560;2022-07-23T09:08:13;22.20;51.20
13458;DHT22;6801;53.018;11.560;2022-07-23T09:10:49;22.20;50.00
13458;DHT22;6801;53.018;11.560;2022-07-23T09:13:37;22.30;49.70
13458;DHT22;6801;53.018;11.560;2022-07-23T09:16:07;22.30;49.80
13458;DHT22;6801;53.018;11.560;2022-07-23T09:18:41;22.30;49.80
13458;DHT22;6801;53.018;11.560;2022-07-23T09:21:15;22.40;49.60
13458;DHT22;6801;53.018;11.560;2022-07-23T09:23:46;22.40;48.60
13458;DHT22;6801;53.018;11.560;2022-07-23T09:26:19;22.40;47.70
13458;DHT22;6801;53.018;11.560;2022-07-23T09:28:55;22.50;48.80
13458;DHT22;6801;53.018;11.560;2022-07-23T09:31:23;22.50;49.10
13458;DHT22;6801;53.018;11.560;2022-07-23T09:33:51;22.60;48.90
13458;DHT22;6801;53.018;11.560;2022-07-23T09:36:28;22.70;48.20
13458;DHT22;6801;53.018;11.560;2022-07-23T09:38:56;22.70;47.70
13458;DHT22;6801;53.018;11.560;2022-07-23T09:41:24;22.70;48.20
13458;DHT22;6801;53.018;11.560;2022-07-23T09:43:57;22.70;47.00
13458;DHT22;6801;53.018;11.560;2022-07-23T09:46:25;22.80;47.60
13458;DHT22;6801;53.018;11.560;2022-07-23T09:48:54;22.90;47.50
13458;DHT22;6801;53.018;11.560;2022-07-23T09:51:23;22.90;47.30
13458;DHT22;6801;53.018;11.560;2022-07-23T09:54:02;22.90;46.90
13458;DHT22;6801;53.018;11.560;2022-07-23T09:56:29;22.90;47.30
13458;DHT22;6801;53.018;11.560;2022-07-23T09:58:56;22.90;46.80
13458;DHT22;6801;53.018;11.560;2022-07-23T10:01:31;23.00;46.80
13458;DHT22;6801;53.018;11.560;2022-07-23T10:03:58;23.00;46.80
13458;DHT22;6801;53.018;11.560;2022-07-23T10:06:53;23.00;45.10
13458;DHT22;6801;53.018;11.560;2022-07-23T10:09:41;23.10;46.50
13458;DHT22;6801;53.018;11.560;2022-07-23T10:12:29;23.30;46.80
13458;DHT22;6801;53.018;11.560;2022-07-23T10:15:15;23.50;44.90
13458;DHT22;6801;53.018;11.560;2022-07-23T10:17:42;23.60;45.50
13458;DHT22;6801;53.018;11.560;2022-07-23T10:20:10;23.50;43.90
13458;DHT22;6801;53.018;11.560;2022-07-23T10:22:40;23.50;44.20
13458;DHT22;6801;53.018;11.560;2022-07-23T10:25:17;23.60;44.60
13458;DHT22;6801;53.018;11.560;2022-07-23T10:28:11;23.80;43.90
13458;DHT22;6801;53.018;11.560;2022-07-23T10:30:45;23.90;44.30
13458;DHT22;6801;53.018;11.560;2022-07-23T10:33:24;24.00;43.80
13458;DHT22;6801;53.018;11.560;2022-07-23T10:35:58;24.00;43.90
13458;DHT22;6801;53.018;11.560;2022-07-23T10:38:32;24.10;43.50
13458;DHT22;6801;53.018;11.560;2022-07-23T10:41:04;24.10;44.00
13458;DHT22;6801;53.018;11.560;2022-07-23T10:43:31;24.20;43.20
13458;DHT22;6801;53.018;11.560;2022-07-23T10:46:23;24.30;43.60
13458;DHT22;6801;53.018;11.560;2022-07-23T10:49:20;24.30;42.90
13458;DHT22;6801;53.018;11.560;2022-07-23T10:52:21;24.40;42.60
13458;DHT22;6801;53.018;11.560;2022-07-23T10:54:50;24.50;40.80
13458;DHT22;6801;53.018;11.560;2022-07-23T10:57:21;24.50;41.80
13458;DHT22;6801;53.018;11.560;2022-07-23T11:02:57;24.60;42.10
13458;DHT22;6801;53.018;11.560;2022-07-23T11:05:26;24.70;41.30
13458;DHT22;6801;53.018;11.560;2022-07-23T11:08:24;24.70;41.30
13458;DHT22;6801;53.018;11.560;2022-07-23T11:10:53;24.70;41.70
13458;DHT22;6801;53.018;11.560;2022-07-23T11:13:40;24.70;41.50
13458;DHT22;6801;53.018;11.560;2022-07-23T11:16:16;24.60;41.20
13458;DHT22;6801;53.018;11.560;2022-07-23T11:19:14;24.60;41.60
13458;DHT22;6801;53.018;11.560;2022-07-23T11:21:46;24.60;41.10
13458;DHT22;6801;53.018;11.560;2022-07-23T11:24:20;24.70;42.20
13458;DHT22;6801;53.018;11.560;2022-07-23T11:27:01;24.80;42.20
13458;DHT22;6801;53.018;11.560;2022-07-23T11:29:47;24.80;41.70
13458;DHT22;6801;53.018;11.560;2022-07-23T11:32:32;25.00;40.90
13458;DHT22;6801;53.018;11.560;2022-07-23T11:35:01;25.00;40.30
13458;DHT22;6801;53.018;11.560;2022-07-23T11:37:34;25.20;39.70
13458;DHT22;6801;53.018;11.560;2022-07-23T11:40:04;25.10;38.80
13458;DHT22;6801;53.018;11.560;2022-07-23T11:42:32;25.20;39.60
13458;DHT22;6801;53.018;11.560;2022-07-23T11:45:00;25.20;39.10
13458;DHT22;6801;53.018;11.560;2022-07-23T11:47:27;25.20;39.20
13458;DHT22;6801;53.018;11.560;2022-07-23T11:49:56;25.30;39.50
13458;DHT22;6801;53.018;11.560;2022-07-23T11:52:24;25.20;38.50
13458;DHT22;6801;53.018;11.560;2022-07-23T11:54:53;25.20;38.80
13458;DHT22;6801;53.018;11.560;2022-07-23T13:08:46;26.00;38.90
13458;DHT22;6801;53.018;11.560;2022-07-23T13:11:13;26.10;39.00
13458;DHT22;6801;53.018;11.560;2022-07-23T13:13:41;26.10;38.00
13458;DHT22;6801;53.018;11.560;2022-07-23T13:16:09;26.10;38.10
13458;DHT22;6801;53.018;11.560;2022-07-23T13:18:36;25.90;38.30
13458;DHT22;6801;53.018;11.560;2022-07-23T13:21:04;26.00;38.60
13458;DHT22;6801;53.018;11.560;2022-07-23T13:23:31;26.00;38.40
13458;DHT22;6801;53.018;11.560;2022-07-23T13:26:00;25.90;37.90
13458;DHT22;6801;53.018;11.560;2022-07-23T13:28:27;25.80;37.90
13458;DHT22;6801;53.018;11.560;2022-07-23T13:30:55;25.90;37.50
13458;DHT22;6801;53.018;11.560;2022-07-23T13:33:24;25.90;38.20
13458;DHT22;6801;53.018;11.560;2022-07-23T13:35:52;25.90;38.20
13458;DHT22;6801;53.018;11.560;2022-07-23T13:38:21;26.00;38.00
13458;DHT22;6801;53.018;11.560;2022-07-23T13:40:50;26.00;38.10
13458;DHT22;6801;53.018;11.560;2022-07-23T13:43:20;26.00;37.40
13458;DHT22;6801;53.018;11.560;2022-07-23T13:45:48;26.00;37.50
13458;DHT22;6801;53.018;11.560;2022-07-23T13:48:15;26.00;36.50
13458;DHT22;6801;53.018;11.560;2022-07-23T13:50:43;26.00;36.80
13458;DHT22;6801;53.018;11.560;2022-07-23T13:53:12;26.10;35.50
13458;DHT22;6801;53.018;11.560;2022-07-23T13:55:40;26.00;36.40
13458;DHT22;6801;53.018;11.560;2022-07-23T13:58:08;26.00;37.10
13458;DHT22;6801;53.018;11.560;2022-07-23T14:00:41;26.20;37.80
13458;DHT22;6801;53.018;11.560;2022-07-23T14:03:09;26.20;36.00
13458;DHT22;6801;53.018;11.560;2022-07-23T14:05:36;26.30;37.00
13458;DHT22;6801;53.018;11.560;2022-07-23T14:08:04;26.30;35.30
13458;DHT22;6801;53.018;11.560;2022-07-23T14:10:31;26.40;36.20
13458;DHT22;6801;53.018;11.560;2022-07-23T14:12:58;26.40;35.90
13458;DHT22;6801;53.018;11.560;2022-07-23T14:15:26;26.50;35.90
13458;DHT22;6801;53.018;11.560;2022-07-23T14:17:55;26.50;36.00
13458;DHT22;6801;53.018;11.560;2022-07-23T14:20:23;26.60;36.60
13458;DHT22;6801;53.018;11.560;2022-07-23T14:22:51;26.60;36.00
13458;DHT22;6801;53.018;11.560;2022-07-23T14:25:18;26.70;35.70
13458;DHT22;6801;53.018;11.560;2022-07-23T14:27:45;26.70;36.20
13458;DHT22;6801;53.018;11.560;2022-07-23T14:30:13;26.80;36.40
13458;DHT22;6801;53.018;11.560;2022-07-23T14:32:41;26.90;36.20
13458;DHT22;6801;53.018;11.560;2022-07-23T14:35:09;26.90;36.50
13458;DHT22;6801;53.018;11.560;2022-07-23T14:37:38;26.90;36.20
13458;DHT22;6801;53.018;11.560;2022-07-23T14:40:06;26.90;36.30
13458;DHT22;6801;53.018;11.560;2022-07-23T14:42:34;26.80;36.30
13458;DHT22;6801;53.018;11.560;2022-07-23T14:45:01;26.80;36.80
13458;DHT22;6801;53.018;11.560;2022-07-23T14:47:28;26.90;36.70
13458;DHT22;6801;53.018;11.560;2022-07-23T14:49:55;26.80;36.90
13458;DHT22;6801;53.018;11.560;2022-07-23T14:52:23;26.90;36.70
13458;DHT22;6801;53.018;11.560;2022-07-23T14:54:50;26.90;36.90
13458;DHT22;6801;53.018;11.560;2022-07-23T14:57:18;26.90;36.80
13458;DHT22;6801;53.018;11.560;2022-07-23T14:59:44;27.00;36.50
13458;DHT22;6801;53.018;11.560;2022-07-23T15:02:12;26.90;36.00
13458;DHT22;6801;53.018;11.560;2022-07-23T15:04:39;26.70;35.90
13458;DHT22;6801;53.018;11.560;2022-07-23T15:07:06;26.70;36.50
13458;DHT22;6801;53.018;11.560;2022-07-23T15:09:34;26.70;36.30
13458;DHT22;6801;53.018;11.560;2022-07-23T15:12:02;26.70;36.30
13458;DHT22;6801;53.018;11.560;2022-07-23T15:14:29;26.70;36.20
13458;DHT22;6801;53.018;11.560;2022-07-23T15:16:56;26.50;35.50
13458;DHT22;6801;53.018;11.560;2022-07-23T15:19:23;26.50;35.00
13458;DHT22;6801;53.018;11.560;2022-07-23T15:21:50;26.50;36.00
13458;DHT22;6801;53.018;11.560;2022-07-23T15:24:17;26.40;35.00
13458;DHT22;6801;53.018;11.560;2022-07-23T15:26:45;26.30;35.90
13458;DHT22;6801;53.018;11.560;2022-07-23T15:29:12;26.30;36.50
13458;DHT22;6801;53.018;11.560;2022-07-23T15:31:39;26.30;36.80
13458;DHT22;6801;53.018;11.560;2022-07-23T15:34:07;26.40;36.90
13458;DHT22;6801;53.018;11.560;2022-07-23T15:36:34;26.40;36.20
13458;DHT22;6801;53.018;11.560;2022-07-23T15:39:01;26.40;36.20
13458;DHT22;6801;53.018;11.560;2022-07-23T15:41:28;26.40;35.50
13458;DHT22;6801;53.018;11.560;2022-07-23T15:43:56;26.30;36.60
13458;DHT22;6801;53.018;11.560;2022-07-23T15:46:24;26.30;35.50
13458;DHT22;6801;53.018;11.560;2022-07-23T15:48:51;26.40;35.20
13458;DHT22;6801;53.018;11.560;2022-07-23T15:51:18;26.40;35.10
13458;DHT22;6801;53.018;11.560;2022-07-23T15:53:45;26.40;35.50
13458;DHT22;6801;53.018;11.560;2022-07-23T15:56:12;26.50;35.40
13458;DHT22;6801;53.018;11.560;2022-07-23T15:58:39;26.50;35.70
13458;DHT22;6801;53.018;11.560;2022-07-23T16:01:08;26.50;35.90
13458;DHT22;6801;53.018;11.560;2022-07-23T16:03:35;26.50;36.00
13458;DHT22;6801;53.018;11.560;2022-07-23T16:06:03;26.50;35.30
13458;DHT22;6801;53.018;11.560;2022-07-23T16:08:31;26.50;36.00
13458;DHT22;6801;53.018;11.560;2022-07-23T16:10:58;26.50;36.40
13458;DHT22;6801;53.018;11.560;2022-07-23T16:13:25;26.50;34.80
13458;DHT22;6801;53.018;11.560;2022-07-23T16:15:53;26.60;36.20
13458;DHT22;6801;53.018;11.560;2022-07-23T16:18:22;26.70;36.60
13458;DHT22;6801;53.018;11.560;2022-07-23T16:20:51;26.70;36.10
13458;DHT22;6801;53.018;11.560;2022-07-23T16:23:19;26.70;35.70
13458;DHT22;6801;53.018;11.560;2022-07-23T16:25:46;26.80;35.40
13458;DHT22;6801;53.018;11.560;2022-07-23T16:28:13;26.80;35.40
13458;DHT22;6801;53.018;11.560;2022-07-23T16:30:40;26.80;35.20
13458;DHT22;6801;53.018;11.560;2022-07-23T16:33:07;26.90;35.80
13458;DHT22;6801;53.018;11.560;2022-07-23T16:35:36;26.80;35.40
13458;DHT22;6801;53.018;11.560;2022-07-23T16:38:04;26.80;35.30
13458;DHT22;6801;53.018;11.560;2022-07-23T16:40:32;26.80;35.60
13458;DHT22;6801;53.018;11.560;2022-07-23T16:42:59;26.80;35.60
13458;DHT22;6801;53.018;11.560;2022-07-23T16:45:26;26.70;35.50
13458;DHT22;6801;53.018;11.560;2022-07-23T16:47:53;26.70;36.00
13458;DHT22;6801;53.018;11.560;2022-07-23T16:50:20;26.70;36.10
13458;DHT22;6801;53.018;11.560;2022-07-23T16:52:49;26.70;36.30
13458;DHT22;6801;53.018;11.560;2022-07-23T16:55:16;26.60;36.30
13458;DHT22;6801;53.018;11.560;2022-07-23T16:57:43;26.60;36.30
13458;DHT22;6801;53.018;11.560;2022-07-23T17:00:10;26.70;36.50